createdAt,value
2023-03-18T00:01:23.756Z,101269.66
2023-03-18T00:03:51.692Z,101269.31
2023-03-18T00:06:22.066Z,101266.84
2023-03-18T00:08:50.855Z,101275.91
2023-03-18T00:11:20.131Z,101277.63
2023-03-18T00:13:48.115Z,101266.66
2023-03-18T00:16:16.692Z,101266.81
2023-03-18T00:18:44.032Z,101269.59
2023-03-18T00:21:11.306Z,101262.94
2023-03-18T00:23:38.833Z,101258.56
2023-03-18T00:26:06.867Z,101253.13
2023-03-18T00:28:33.905Z,101265.13
2023-03-18T00:31:09.208Z,101252.72
2023-03-18T00:33:38.217Z,101254.50
2023-03-18T00:36:07.391Z,101247.00
2023-03-18T00:38:35.714Z,101264.81
2023-03-18T00:41:11.801Z,101245.50
2023-03-18T00:43:55.157Z,101248.44
2023-03-18T00:46:25.736Z,101248.84
2023-03-18T00:48:54.724Z,101254.97
2023-03-18T00:51:24.102Z,101257.59
2023-03-18T00:53:54.169Z,101244.00
2023-03-18T00:56:24.117Z,101243.97
2023-03-18T00:58:52.432Z,101242.38
2023-03-18T01:01:20.070Z,101245.91
2023-03-18T01:03:49.657Z,101248.97
2023-03-18T01:06:21.121Z,101248.72
2023-03-18T01:08:48.558Z,101252.38
2023-03-18T01:11:16.098Z,101257.59
2023-03-18T01:13:44.070Z,101245.78
2023-03-18T01:16:11.952Z,101238.13
2023-03-18T01:18:40.210Z,101246.84
2023-03-18T01:21:08.848Z,101246.41
2023-03-18T01:23:39.915Z,101252.09
2023-03-18T01:26:07.746Z,101246.19
2023-03-18T01:28:36.000Z,101257.97
2023-03-18T01:31:04.748Z,101245.13
2023-03-18T01:33:31.893Z,101249.28
2023-03-18T01:36:00.681Z,101247.47
2023-03-18T01:38:30.449Z,101247.16
2023-03-18T01:41:04.064Z,101250.44
2023-03-18T01:43:34.626Z,101253.81
2023-03-18T01:46:41.341Z,101250.88
2023-03-18T01:49:36.959Z,101254.66
2023-03-18T01:52:10.958Z,101256.84
2023-03-18T01:54:42.393Z,101257.91
2023-03-18T01:57:09.593Z,101260.50
2023-03-18T01:59:40.333Z,101253.28
2023-03-18T02:02:10.629Z,101269.91
2023-03-18T02:04:42.743Z,101262.50
2023-03-18T02:07:26.718Z,101258.38
2023-03-18T02:09:59.879Z,101255.94
2023-03-18T02:12:33.511Z,101265.78
2023-03-18T02:15:04.140Z,101262.50
2023-03-18T02:17:36.028Z,101254.06
2023-03-18T02:20:26.102Z,101255.06
2023-03-18T02:22:58.943Z,101257.59
2023-03-18T02:25:48.039Z,101252.03
2023-03-18T02:28:21.693Z,101254.63
2023-03-18T02:30:54.312Z,101258.34
2023-03-18T02:33:26.838Z,101255.41
2023-03-18T02:35:58.682Z,101251.59
2023-03-18T02:38:26.599Z,101245.75
2023-03-18T02:40:53.838Z,101250.97
2023-03-18T02:43:32.499Z,101244.00
2023-03-18T02:46:09.601Z,101251.22
2023-03-18T02:48:40.652Z,101244.84
2023-03-18T02:51:09.185Z,101250.63
2023-03-18T02:53:36.977Z,101249.84
2023-03-18T02:56:04.565Z,101253.09
2023-03-18T02:58:32.469Z,101260.91
2023-03-18T03:01:01.440Z,101251.63
2023-03-18T03:03:29.348Z,101250.69
2023-03-18T03:05:56.621Z,101263.47
2023-03-18T03:08:25.197Z,101258.06
2023-03-18T03:10:52.644Z,101258.41
2023-03-18T03:13:22.329Z,101258.16
2023-03-18T03:15:50.868Z,101257.63
2023-03-18T03:18:17.920Z,101253.09
2023-03-18T03:20:45.714Z,101250.69
2023-03-18T03:23:15.775Z,101253.41
2023-03-18T03:25:44.981Z,101251.88
2023-03-18T03:28:14.194Z,101253.94
2023-03-18T03:30:42.374Z,101246.34
2023-03-18T03:33:10.281Z,101246.84
2023-03-18T03:35:38.847Z,101249.34
2023-03-18T03:38:06.598Z,101251.53
2023-03-18T03:40:34.296Z,101247.44
2023-03-18T03:43:01.553Z,101250.97
2023-03-18T03:45:29.397Z,101252.84
2023-03-18T03:47:56.541Z,101255.38
2023-03-18T03:50:23.902Z,101244.59
2023-03-18T03:52:50.946Z,101249.88
2023-03-18T03:55:20.349Z,101254.75
2023-03-18T03:57:48.448Z,101254.44
2023-03-18T04:00:20.634Z,101259.06
2023-03-18T04:02:51.437Z,101256.06
2023-03-18T04:05:23.714Z,101262.13
2023-03-18T04:07:52.567Z,101251.69
2023-03-18T04:10:28.462Z,101259.22
2023-03-18T04:12:55.553Z,101249.16
2023-03-18T04:15:23.151Z,101256.31
2023-03-18T04:17:53.363Z,101256.31
2023-03-18T04:20:21.030Z,101258.13
2023-03-18T04:22:49.378Z,101260.75
2023-03-18T04:25:19.163Z,101260.16
2023-03-18T04:27:48.846Z,101256.25
2023-03-18T04:30:17.964Z,101262.19
2023-03-18T04:32:56.890Z,101263.47
2023-03-18T04:35:23.908Z,101264.66
2023-03-18T04:37:51.433Z,101261.78
2023-03-18T04:40:20.089Z,101263.63
2023-03-18T04:42:48.324Z,101260.75
2023-03-18T04:45:17.898Z,101252.69
2023-03-18T04:47:45.632Z,101255.38
2023-03-18T04:50:14.683Z,101252.75
2023-03-18T04:52:43.784Z,101253.06
2023-03-18T04:55:16.603Z,101246.97
2023-03-18T04:57:44.557Z,101250.22
2023-03-18T05:00:17.627Z,101257.25
2023-03-18T05:02:47.760Z,101260.41
2023-03-18T05:05:15.026Z,101266.75
2023-03-18T05:07:47.261Z,101263.06
2023-03-18T05:10:16.548Z,101266.44
2023-03-18T05:12:43.701Z,101271.66
2023-03-18T05:15:14.455Z,101277.34
2023-03-18T05:17:47.793Z,101276.81
2023-03-18T05:20:14.967Z,101282.59
2023-03-18T05:22:44.991Z,101274.19
2023-03-18T05:25:21.796Z,101279.56
2023-03-18T05:27:49.712Z,101263.53
2023-03-18T05:30:26.820Z,101266.25
2023-03-18T05:32:55.184Z,101265.75
2023-03-18T05:35:36.451Z,101274.38
2023-03-18T05:38:04.800Z,101270.50
2023-03-18T05:40:31.862Z,101262.94
2023-03-18T05:43:05.607Z,101255.81
2023-03-18T05:45:40.506Z,101247.91
2023-03-18T05:48:10.765Z,101254.03
2023-03-18T05:50:48.595Z,101257.47
2023-03-18T05:53:19.668Z,101243.56
2023-03-18T05:55:50.032Z,101247.38
2023-03-18T05:58:18.880Z,101255.50
2023-03-18T06:00:48.475Z,101249.56
2023-03-18T06:03:15.540Z,101251.34
2023-03-18T06:05:42.648Z,101257.28
2023-03-18T06:08:09.837Z,101260.97
2023-03-18T06:10:37.970Z,101260.69
2023-03-18T06:13:06.033Z,101262.28
2023-03-18T06:15:33.509Z,101260.19
2023-03-18T06:18:00.795Z,101256.31
2023-03-18T06:20:28.278Z,101266.03
2023-03-18T06:22:55.275Z,101269.34
2023-03-18T06:25:26.544Z,101257.78
2023-03-18T06:27:53.895Z,101264.69
2023-03-18T06:30:24.870Z,101271.41
2023-03-18T06:32:53.504Z,101266.56
2023-03-18T06:35:26.729Z,101275.13
2023-03-18T06:37:54.808Z,101275.53
2023-03-18T06:40:22.424Z,101267.59
2023-03-18T06:42:51.082Z,101287.09
2023-03-18T06:45:28.452Z,101282.75
2023-03-18T06:48:04.482Z,101287.13
2023-03-18T06:50:33.991Z,101289.28
2023-03-18T06:53:01.335Z,101293.13
2023-03-18T06:55:31.254Z,101275.28
2023-03-18T06:57:59.224Z,101280.44
2023-03-18T07:00:34.332Z,101280.06
2023-03-18T07:03:01.920Z,101291.56
2023-03-18T07:05:29.650Z,101293.56
2023-03-18T07:07:57.014Z,101283.84
2023-03-18T07:10:27.573Z,101270.28
2023-03-18T07:13:00.405Z,101288.59
2023-03-18T07:15:28.953Z,101285.72
2023-03-18T07:18:00.530Z,101276.09
2023-03-18T07:20:28.850Z,101277.50
2023-03-18T07:22:55.959Z,101286.84
2023-03-18T07:25:23.214Z,101280.81
2023-03-18T07:27:50.805Z,101284.16
2023-03-18T07:30:19.001Z,101284.38
2023-03-18T07:32:46.294Z,101277.91
2023-03-18T07:35:16.192Z,101279.56
2023-03-18T07:37:43.598Z,101282.63
2023-03-18T07:40:11.917Z,101270.69
2023-03-18T07:42:38.929Z,101287.06
2023-03-18T07:45:07.965Z,101280.94
2023-03-18T07:47:35.247Z,101291.34
2023-03-18T07:50:02.744Z,101283.25
2023-03-18T07:52:29.912Z,101288.06
2023-03-18T07:54:56.996Z,101285.63
2023-03-18T07:57:24.254Z,101279.22
2023-03-18T07:59:52.031Z,101282.28
2023-03-18T08:02:20.554Z,101280.44
2023-03-18T08:04:48.068Z,101295.31
2023-03-18T08:07:15.173Z,101300.91
2023-03-18T08:09:42.189Z,101310.72
2023-03-18T08:12:09.581Z,101298.72
2023-03-18T08:14:36.938Z,101281.63
2023-03-18T08:17:04.202Z,101291.94
2023-03-18T08:19:31.240Z,101309.56
2023-03-18T08:21:58.364Z,101301.78
2023-03-18T08:24:25.527Z,101292.69
2023-03-18T08:26:52.680Z,101304.47
2023-03-18T08:29:19.728Z,101298.75
2023-03-18T08:31:46.867Z,101302.53
2023-03-18T08:34:14.478Z,101292.97
2023-03-18T08:36:42.964Z,101291.69
2023-03-18T08:39:10.194Z,101282.88
2023-03-18T08:41:37.584Z,101296.13
2023-03-18T08:44:06.715Z,101287.88
2023-03-18T08:46:33.814Z,101297.06
2023-03-18T08:49:00.779Z,101294.50
2023-03-18T08:51:29.205Z,101299.72
2023-03-18T08:53:56.615Z,101301.38
2023-03-18T08:56:24.117Z,101295.38
2023-03-18T08:58:51.238Z,101301.53
2023-03-18T09:01:22.096Z,101290.97
2023-03-18T09:03:50.806Z,101302.41
2023-03-18T09:06:18.625Z,101298.88
2023-03-18T09:08:45.649Z,101315.50
2023-03-18T09:11:13.925Z,101304.78
2023-03-18T09:13:41.218Z,101303.16
2023-03-18T09:16:08.513Z,101301.53
2023-03-18T09:18:35.588Z,101305.75
2023-03-18T09:21:03.464Z,101298.53
2023-03-18T09:23:31.881Z,101292.66
2023-03-18T09:26:00.616Z,101285.50
2023-03-18T09:28:27.954Z,101292.00
2023-03-18T09:30:55.883Z,101289.50
2023-03-18T09:33:24.810Z,101287.59
2023-03-18T09:35:51.830Z,101282.06
2023-03-18T09:38:20.845Z,101284.53
2023-03-18T09:41:11.052Z,101281.06
2023-03-18T09:44:03.252Z,101276.09
2023-03-18T09:46:58.192Z,101272.84
2023-03-18T09:49:48.538Z,101283.41
2023-03-18T09:52:24.339Z,101281.72
2023-03-18T09:55:20.025Z,101280.69
2023-03-18T09:57:50.112Z,101282.53
2023-03-18T10:00:26.168Z,101283.66
2023-03-18T10:03:00.252Z,101285.13
2023-03-18T10:05:34.873Z,101278.28
2023-03-18T10:08:17.070Z,101274.34
2023-03-18T10:10:47.718Z,101272.34
2023-03-18T10:13:52.568Z,101279.88
2023-03-18T10:16:28.241Z,101274.19
2023-03-18T10:18:55.765Z,101278.34
2023-03-18T10:21:35.329Z,101277.06
2023-03-18T10:24:30.769Z,101272.34
2023-03-18T10:27:10.699Z,101279.16
2023-03-18T10:30:18.469Z,101286.41
2023-03-18T10:33:19.191Z,101270.81
2023-03-18T10:36:03.251Z,101262.69
2023-03-18T10:38:45.264Z,101258.47
2023-03-18T10:41:32.623Z,101249.81
2023-03-18T10:44:25.612Z,101260.06
2023-03-18T10:47:00.905Z,101247.16
2023-03-18T10:49:31.442Z,101247.97
2023-03-18T10:52:10.293Z,101246.94
2023-03-18T10:54:41.723Z,101243.72
2023-03-18T10:57:16.058Z,101247.66
2023-03-18T10:59:47.719Z,101252.41
2023-03-18T11:02:33.264Z,101247.59
2023-03-18T11:05:05.174Z,101226.88
2023-03-18T11:07:32.360Z,101231.69
2023-03-18T11:10:13.416Z,101236.94
2023-03-18T11:12:40.498Z,101233.69
2023-03-18T11:15:13.030Z,101234.13
2023-03-18T11:17:40.960Z,101231.09
2023-03-18T11:20:25.361Z,101232.84
2023-03-18T11:22:55.800Z,101228.88
2023-03-18T11:25:26.764Z,101227.78
2023-03-18T11:28:04.491Z,101230.59
2023-03-18T11:30:45.560Z,101226.66
2023-03-18T11:33:12.712Z,101234.94
2023-03-18T11:35:45.470Z,101221.09
2023-03-18T11:38:18.935Z,101234.28
2023-03-18T11:40:46.696Z,101224.34
2023-03-18T11:43:22.362Z,101225.59
2023-03-18T11:45:52.355Z,101222.31
2023-03-18T11:48:38.347Z,101224.19
2023-03-18T11:51:42.446Z,101228.78
2023-03-18T11:54:26.625Z,101230.63
2023-03-18T11:57:01.780Z,101224.56
2023-03-18T11:59:52.673Z,101224.25
2023-03-18T12:02:42.765Z,101227.56
2023-03-18T12:05:41.015Z,101224.19
2023-03-18T12:08:09.911Z,101226.31
2023-03-18T12:10:41.214Z,101220.97
2023-03-18T12:13:51.337Z,101218.28
2023-03-18T12:16:27.940Z,101214.63
2023-03-18T12:19:30.063Z,101211.22
2023-03-18T12:22:24.088Z,101200.19
2023-03-18T12:25:09.327Z,101214.94
2023-03-18T12:28:06.316Z,101219.38
2023-03-18T12:30:42.680Z,101217.41
2023-03-18T12:33:34.153Z,101217.97
2023-03-18T12:36:04.107Z,101227.44
2023-03-18T12:38:53.450Z,101217.78
2023-03-18T12:41:29.660Z,101224.75
2023-03-18T12:44:15.148Z,101219.44
2023-03-18T12:46:53.990Z,101218.28
2023-03-18T12:49:53.512Z,101218.63
2023-03-18T12:52:40.315Z,101235.25
2023-03-18T12:55:16.358Z,101229.53
2023-03-18T12:58:20.405Z,101245.84
2023-03-18T13:01:18.415Z,101235.56
2023-03-18T13:04:07.721Z,101234.91
2023-03-18T13:06:51.547Z,101241.69
2023-03-18T13:09:51.734Z,101238.34
2023-03-18T13:12:28.984Z,101239.50
2023-03-18T13:15:07.204Z,101240.69
2023-03-18T13:17:41.267Z,101231.69
2023-03-18T13:20:14.645Z,101230.56
2023-03-18T13:22:44.234Z,101232.59
2023-03-18T13:25:14.045Z,101220.91
2023-03-18T13:28:05.735Z,101217.84
2023-03-18T13:30:51.435Z,101212.25
2023-03-18T13:33:43.031Z,101206.16
2023-03-18T13:36:10.584Z,101226.16
2023-03-18T13:39:15.258Z,101210.09
2023-03-18T13:41:52.364Z,101209.97
2023-03-18T13:44:25.565Z,101215.47
2023-03-18T13:47:03.659Z,101210.56
2023-03-18T13:49:32.869Z,101205.34
2023-03-18T13:52:03.965Z,101213.75
2023-03-18T13:54:36.716Z,101215.31
2023-03-18T13:57:54.211Z,101213.22
2023-03-18T14:00:40.625Z,101221.00
2023-03-18T14:03:13.504Z,101218.44
2023-03-18T14:05:42.702Z,101217.28
2023-03-18T14:08:36.168Z,101212.41
2023-03-18T14:11:19.916Z,101217.38
2023-03-18T14:13:55.478Z,101213.66
2023-03-18T14:16:30.313Z,101219.78
2023-03-18T14:19:06.249Z,101214.44
2023-03-18T14:21:34.446Z,101214.75
2023-03-18T14:24:26.234Z,101213.81
2023-03-18T14:27:05.349Z,101210.41
2023-03-18T14:29:35.209Z,101209.53
2023-03-18T14:32:08.561Z,101196.78
2023-03-18T14:34:55.249Z,101196.69
2023-03-18T14:37:30.944Z,101191.47
2023-03-18T14:40:17.132Z,101199.88
2023-03-18T14:43:10.580Z,101194.38
2023-03-18T14:45:44.897Z,101202.03
2023-03-18T14:48:19.115Z,101197.56
2023-03-18T14:50:49.782Z,101203.69
2023-03-18T14:53:40.342Z,101208.06
2023-03-18T14:56:18.365Z,101208.69
2023-03-18T14:58:47.742Z,101207.72
2023-03-18T15:01:17.938Z,101215.03
2023-03-18T15:03:49.942Z,101220.38
2023-03-18T15:06:29.345Z,101226.94
2023-03-18T15:09:08.486Z,101235.59
2023-03-18T15:11:41.450Z,101231.16
2023-03-18T15:14:30.151Z,101231.25
2023-03-18T15:17:01.102Z,101237.97
2023-03-18T15:19:29.521Z,101229.38
2023-03-18T15:22:03.618Z,101238.66
2023-03-18T15:24:31.029Z,101240.94
2023-03-18T15:26:59.350Z,101236.63
2023-03-18T15:29:33.963Z,101241.25
2023-03-18T15:32:20.278Z,101235.63
2023-03-18T15:35:06.568Z,101234.34
2023-03-18T15:37:40.764Z,101236.53
2023-03-18T15:40:32.259Z,101229.69
2023-03-18T15:43:18.198Z,101244.69
2023-03-18T15:45:52.156Z,101239.13
2023-03-18T15:48:27.170Z,101234.63
2023-03-18T15:50:58.432Z,101241.78
2023-03-18T15:53:34.663Z,101243.47
2023-03-18T15:56:19.932Z,101244.38
2023-03-18T15:59:06.474Z,101252.09
2023-03-18T16:01:35.413Z,101256.69
2023-03-18T16:04:06.694Z,101248.25
2023-03-18T16:06:35.113Z,101258.13
2023-03-18T16:09:14.002Z,101258.72
2023-03-18T16:11:41.459Z,101258.00
2023-03-18T16:14:15.082Z,101255.38
2023-03-18T16:16:42.655Z,101262.00
2023-03-18T16:19:25.155Z,101272.91
2023-03-18T16:21:53.125Z,101256.81
2023-03-18T16:24:20.488Z,101258.50
2023-03-18T16:26:47.876Z,101260.81
2023-03-18T16:29:16.935Z,101252.69
2023-03-18T16:31:44.957Z,101256.38
2023-03-18T16:34:17.189Z,101260.03
2023-03-18T16:36:44.507Z,101251.59
2023-03-18T16:39:27.476Z,101258.03
2023-03-18T16:41:54.940Z,101257.69
2023-03-18T16:44:23.742Z,101261.72
2023-03-18T16:46:54.635Z,101255.63
2023-03-18T16:49:26.220Z,101267.28
2023-03-18T16:51:53.966Z,101272.66
2023-03-18T16:54:42.971Z,101271.91
2023-03-18T16:57:17.606Z,101274.25
2023-03-18T16:59:49.986Z,101271.41
2023-03-18T17:02:31.371Z,101277.69
2023-03-18T17:04:59.039Z,101273.22
2023-03-18T17:07:26.796Z,101276.25
2023-03-18T17:09:53.760Z,101284.13
2023-03-18T17:12:22.033Z,101281.09
2023-03-18T17:14:54.829Z,101289.72
2023-03-18T17:17:21.781Z,101293.84
2023-03-18T17:19:49.001Z,101292.91
2023-03-18T17:22:25.880Z,101289.00
2023-03-18T17:24:53.007Z,101294.97
2023-03-18T17:27:26.868Z,101288.38
2023-03-18T17:29:53.977Z,101289.59
2023-03-18T17:32:22.358Z,101290.59
2023-03-18T17:34:51.487Z,101292.41
2023-03-18T17:37:19.296Z,101300.94
2023-03-18T17:39:47.195Z,101300.44
2023-03-18T17:42:28.186Z,101297.38
2023-03-18T17:44:55.585Z,101298.34
2023-03-18T17:47:22.903Z,101304.31
2023-03-18T17:49:49.895Z,101306.31
2023-03-18T17:52:22.214Z,101304.84
2023-03-18T17:54:49.892Z,101305.94
2023-03-18T17:57:18.313Z,101307.59
2023-03-18T17:59:46.113Z,101312.31
2023-03-18T18:02:21.327Z,101308.97
2023-03-18T18:04:48.484Z,101325.53
2023-03-18T18:07:21.903Z,101316.59
2023-03-18T18:09:49.886Z,101308.06
2023-03-18T18:12:22.107Z,101314.41
2023-03-18T18:14:50.229Z,101314.53
2023-03-18T18:17:18.344Z,101322.13
2023-03-18T18:19:45.698Z,101328.41
2023-03-18T18:22:22.771Z,101315.19
2023-03-18T18:24:51.639Z,101327.22
2023-03-18T18:27:19.487Z,101329.81
2023-03-18T18:29:47.014Z,101327.06
2023-03-18T18:32:15.638Z,101329.28
2023-03-18T18:34:42.762Z,101334.81
2023-03-18T18:37:09.968Z,101333.41
2023-03-18T18:39:36.967Z,101335.56
2023-03-18T18:42:04.562Z,101334.19
2023-03-18T18:44:31.931Z,101337.41
2023-03-18T18:46:58.998Z,101338.81
2023-03-18T18:49:26.119Z,101327.91
2023-03-18T18:51:55.107Z,101338.56
2023-03-18T18:54:23.543Z,101339.59
2023-03-18T18:56:51.374Z,101345.84
2023-03-18T18:59:30.940Z,101346.03
2023-03-18T19:01:58.603Z,101333.94
2023-03-18T19:04:25.716Z,101352.16
2023-03-18T19:06:53.880Z,101337.66
2023-03-18T19:09:26.105Z,101339.16
2023-03-18T19:11:56.252Z,101343.44
2023-03-18T19:14:27.467Z,101344.63
2023-03-18T19:16:58.395Z,101338.19
2023-03-18T19:19:31.418Z,101331.56
2023-03-18T19:21:58.998Z,101336.81
2023-03-18T19:24:37.001Z,101339.50
2023-03-18T19:27:07.237Z,101336.03
2023-03-18T19:29:34.406Z,101340.63
2023-03-18T19:32:02.035Z,101329.94
2023-03-18T19:34:32.354Z,101336.63
2023-03-18T19:37:02.877Z,101336.78
2023-03-18T19:39:30.149Z,101337.91
2023-03-18T19:41:57.194Z,101348.69
2023-03-18T19:44:26.275Z,101337.03
2023-03-18T19:46:56.672Z,101353.00
2023-03-18T19:49:32.539Z,101355.25
2023-03-18T19:52:00.207Z,101349.22
2023-03-18T19:54:32.479Z,101346.41
2023-03-18T19:57:22.725Z,101336.59
2023-03-18T19:59:51.434Z,101347.03
2023-03-18T20:02:25.187Z,101346.88
2023-03-18T20:04:54.961Z,101351.34
2023-03-18T20:07:23.950Z,101348.47
2023-03-18T20:09:51.576Z,101347.28
2023-03-18T20:12:25.926Z,101335.13
2023-03-18T20:14:53.441Z,101346.88
2023-03-18T20:17:37.590Z,101343.25
2023-03-18T20:20:07.508Z,101340.28
2023-03-18T20:22:40.875Z,101340.19
2023-03-18T20:25:15.843Z,101344.41
2023-03-18T20:27:43.000Z,101342.53
2023-03-18T20:30:31.080Z,101342.47
2023-03-18T20:32:58.496Z,101349.03
2023-03-18T20:35:28.984Z,101346.06
2023-03-18T20:37:58.872Z,101342.03
2023-03-18T20:40:28.410Z,101332.44
2023-03-18T20:42:55.959Z,101336.25
2023-03-18T20:45:24.868Z,101346.09
2023-03-18T20:47:51.875Z,101335.16
2023-03-18T20:50:22.882Z,101335.25
2023-03-18T20:52:50.804Z,101336.69
2023-03-18T20:55:27.015Z,101328.25
2023-03-18T20:57:54.537Z,101339.34
2023-03-18T21:00:24.393Z,101335.00
2023-03-18T21:02:54.382Z,101337.97
2023-03-18T21:05:22.484Z,101331.09
2023-03-18T21:07:49.592Z,101318.03
2023-03-18T21:10:37.348Z,101320.50
2023-03-18T21:13:26.052Z,101322.88
2023-03-18T21:15:53.524Z,101327.66
2023-03-18T21:18:20.750Z,101322.34
2023-03-18T21:20:47.987Z,101324.09
2023-03-18T21:23:26.917Z,101321.50
2023-03-18T21:25:54.832Z,101323.63
2023-03-18T21:28:23.833Z,101325.63
2023-03-18T21:30:58.131Z,101316.91
2023-03-18T21:33:27.985Z,101320.69
2023-03-18T21:35:58.308Z,101324.00
2023-03-18T21:38:35.094Z,101319.81
2023-03-18T21:41:02.788Z,101308.06
2023-03-18T21:43:35.858Z,101320.41
2023-03-18T21:46:04.939Z,101315.69
2023-03-18T21:48:32.348Z,101321.31
2023-03-18T21:50:59.803Z,101312.69
2023-03-18T21:53:28.250Z,101313.56
2023-03-18T21:55:55.930Z,101316.88
2023-03-18T21:58:25.808Z,101310.69
2023-03-18T22:00:55.857Z,101310.81
2023-03-18T22:03:24.900Z,101309.56
2023-03-18T22:05:52.917Z,101307.72
2023-03-18T22:08:21.278Z,101313.44
2023-03-18T22:10:50.660Z,101318.66
2023-03-18T22:13:26.162Z,101323.88
2023-03-18T22:15:54.778Z,101327.25
2023-03-18T22:18:22.753Z,101326.97
2023-03-18T22:20:51.634Z,101330.03
2023-03-18T22:23:24.394Z,101334.38
2023-03-18T22:25:53.937Z,101326.00
2023-03-18T22:28:22.272Z,101332.53
2023-03-18T22:30:56.167Z,101328.63
2023-03-18T22:33:28.096Z,101326.13
2023-03-18T22:35:55.628Z,101323.84
2023-03-18T22:38:24.465Z,101324.53
2023-03-18T22:40:54.454Z,101323.16
2023-03-18T22:43:28.335Z,101331.88
2023-03-18T22:45:56.796Z,101325.84
2023-03-18T22:48:23.955Z,101327.16
2023-03-18T22:50:51.672Z,101331.81
2023-03-18T22:53:23.093Z,101327.06
2023-03-18T22:55:53.789Z,101326.94
2023-03-18T22:58:27.181Z,101327.59
2023-03-18T23:00:55.266Z,101322.78
2023-03-18T23:03:26.667Z,101322.84
2023-03-18T23:05:55.295Z,101316.41
2023-03-18T23:08:22.882Z,101314.91
2023-03-18T23:10:51.629Z,101317.50
2023-03-18T23:13:39.379Z,101325.66
2023-03-18T23:16:09.351Z,101318.69
2023-03-18T23:18:37.606Z,101319.97
2023-03-18T23:21:05.253Z,101316.00
2023-03-18T23:23:32.385Z,101315.47
2023-03-18T23:25:59.601Z,101316.56
2023-03-18T23:28:26.617Z,101314.81
2023-03-18T23:30:53.932Z,101312.09
2023-03-18T23:33:20.938Z,101313.59
2023-03-18T23:35:48.978Z,101311.59
2023-03-18T23:38:16.310Z,101308.94
2023-03-18T23:40:43.424Z,101304.84
2023-03-18T23:43:10.509Z,101303.50
2023-03-18T23:45:38.783Z,101297.16
2023-03-18T23:48:06.853Z,101298.53
2023-03-18T23:50:34.357Z,101301.78
2023-03-18T23:53:01.906Z,101295.78
2023-03-18T23:55:34.933Z,101295.13
2023-03-18T23:58:03.866Z,101287.81
